createdAt,value
2019-03-20T00:00:55.065Z,81.46
2019-03-20T00:03:23.666Z,81.47
2019-03-20T00:05:52.657Z,81.69
2019-03-20T00:08:21.957Z,82.16
2019-03-20T00:10:50.619Z,82.23
2019-03-20T00:13:19.268Z,82.64
2019-03-20T00:15:48.226Z,83.12
2019-03-20T00:18:16.887Z,83.01
2019-03-20T00:20:45.627Z,82.53
2019-03-20T00:23:14.401Z,82.21
2019-03-20T00:25:43.378Z,81.99
2019-03-20T00:28:12.000Z,82.02
2019-03-20T00:30:41.161Z,82.09
2019-03-20T00:33:09.885Z,82.47
2019-03-20T00:35:38.837Z,82.52
2019-03-20T00:38:07.569Z,82.77
2019-03-20T00:40:36.220Z,82.89
2019-03-20T00:43:05.213Z,83.41
2019-03-20T00:45:34.508Z,83.01
2019-03-20T00:48:03.197Z,82.92
2019-03-20T00:50:32.086Z,83.11
2019-03-20T00:53:01.384Z,83.23
2019-03-20T00:55:30.065Z,83.53
2019-03-20T00:57:58.696Z,84.41
2019-03-20T01:00:27.751Z,84.19
2019-03-20T01:02:56.643Z,83.85
2019-03-20T01:05:25.262Z,84.65
2019-03-20T01:07:54.228Z,85.12
2019-03-20T01:10:22.928Z,84.82
2019-03-20T01:12:51.732Z,85.01
2019-03-20T01:15:20.445Z,85.66
2019-03-20T01:17:49.478Z,85.36
2019-03-20T01:20:19.597Z,85.53
2019-03-20T01:22:48.665Z,85.42
2019-03-20T01:25:17.480Z,85.32
2019-03-20T01:27:46.597Z,85.43
2019-03-20T01:30:35.746Z,85.03
2019-03-20T01:33:06.378Z,84.91
2019-03-20T01:35:35.069Z,84.62
2019-03-20T01:38:04.485Z,84.84
2019-03-20T01:40:33.209Z,84.63
2019-03-20T01:43:02.150Z,84.44
2019-03-20T01:45:31.231Z,83.61
2019-03-20T01:48:00.300Z,83.29
2019-03-20T01:50:29.643Z,83.20
2019-03-20T01:52:58.533Z,83.31
2019-03-20T01:55:27.755Z,83.13
2019-03-20T01:57:56.459Z,83.23
2019-03-20T02:00:25.235Z,83.37
2019-03-20T02:02:54.203Z,83.60
2019-03-20T02:05:23.094Z,83.47
2019-03-20T02:07:51.749Z,83.27
2019-03-20T02:10:21.084Z,82.83
2019-03-20T02:12:49.771Z,82.13
2019-03-20T02:15:18.472Z,81.62
2019-03-20T02:17:47.168Z,81.74
2019-03-20T02:20:16.543Z,80.88
2019-03-20T02:22:45.437Z,80.68
2019-03-20T02:25:14.429Z,80.04
2019-03-20T02:27:43.428Z,80.36
2019-03-20T02:30:14.743Z,80.06
2019-03-20T02:32:43.773Z,79.78
2019-03-20T02:35:12.675Z,79.62
2019-03-20T02:37:41.657Z,79.69
2019-03-20T02:40:10.732Z,80.02
2019-03-20T02:42:39.713Z,79.89
2019-03-20T02:45:10.459Z,79.46
2019-03-20T02:47:39.140Z,79.96
2019-03-20T02:50:08.257Z,80.60
2019-03-20T02:52:37.666Z,80.87
2019-03-20T02:55:07.253Z,80.76
2019-03-20T02:57:35.967Z,80.89
2019-03-20T03:00:06.637Z,81.36
2019-03-20T03:02:35.689Z,81.40
2019-03-20T03:05:05.359Z,81.74
2019-03-20T03:07:34.285Z,81.76
2019-03-20T03:10:03.702Z,81.86
2019-03-20T03:12:32.684Z,81.85
2019-03-20T03:15:01.319Z,81.89
2019-03-20T03:17:29.970Z,81.95
2019-03-20T03:19:58.599Z,82.24
2019-03-20T03:22:27.261Z,82.57
2019-03-20T03:24:55.959Z,82.33
2019-03-20T03:27:24.906Z,82.92
2019-03-20T03:29:53.616Z,83.08
2019-03-20T03:32:22.833Z,83.70
2019-03-20T03:34:51.821Z,84.30
2019-03-20T03:37:20.468Z,85.03
2019-03-20T03:39:49.362Z,85.08
2019-03-20T03:42:17.997Z,84.90
2019-03-20T03:44:46.681Z,85.47
2019-03-20T03:47:15.654Z,85.76
2019-03-20T03:49:44.302Z,85.75
2019-03-20T03:52:13.514Z,85.15
2019-03-20T03:54:42.170Z,85.18
2019-03-20T03:57:10.766Z,84.98
2019-03-20T03:59:39.797Z,85.25
2019-03-20T04:02:08.540Z,85.58
2019-03-20T04:04:37.269Z,85.54
2019-03-20T04:07:06.354Z,85.76
2019-03-20T04:09:35.346Z,85.67
2019-03-20T04:12:04.150Z,85.73
2019-03-20T04:14:33.125Z,85.67
2019-03-20T04:17:01.790Z,85.58
2019-03-20T04:19:30.446Z,85.84
2019-03-20T04:21:59.492Z,86.04
2019-03-20T04:24:28.173Z,85.82
2019-03-20T04:26:57.168Z,85.93
2019-03-20T04:29:25.823Z,86.06
2019-03-20T04:31:54.748Z,85.50
2019-03-20T04:34:23.781Z,85.41
2019-03-20T04:36:52.740Z,85.94
2019-03-20T04:39:21.454Z,85.59
2019-03-20T04:41:50.411Z,85.16
2019-03-20T04:44:19.325Z,85.18
2019-03-20T04:46:48.306Z,85.35
2019-03-20T04:49:17.294Z,85.49
2019-03-20T04:51:46.289Z,85.69
2019-03-20T04:54:15.221Z,85.73
2019-03-20T04:56:43.848Z,85.89
2019-03-20T04:59:12.776Z,85.81
2019-03-20T05:01:41.479Z,85.71
2019-03-20T05:04:10.745Z,85.70
2019-03-20T05:06:39.365Z,85.35
2019-03-20T05:09:08.627Z,85.44
2019-03-20T05:11:37.551Z,85.29
2019-03-20T05:14:06.293Z,84.90
2019-03-20T05:16:34.964Z,84.65
2019-03-20T05:19:03.911Z,84.69
2019-03-20T05:21:32.773Z,84.18
2019-03-20T05:24:01.428Z,83.64
2019-03-20T05:26:30.065Z,83.61
2019-03-20T05:28:58.752Z,83.27
2019-03-20T05:31:27.828Z,83.25
2019-03-20T05:33:56.740Z,83.39
2019-03-20T05:36:25.719Z,83.62
2019-03-20T05:38:54.384Z,83.67
2019-03-20T05:41:23.566Z,83.70
2019-03-20T05:43:52.217Z,83.69
2019-03-20T05:46:20.938Z,83.93
2019-03-20T05:48:49.900Z,84.18
2019-03-20T05:51:18.578Z,84.36
2019-03-20T05:53:47.250Z,84.80
2019-03-20T05:56:15.920Z,84.53
2019-03-20T05:58:44.529Z,84.22
2019-03-20T06:01:13.818Z,83.72
2019-03-20T06:03:42.823Z,83.56
2019-03-20T06:06:11.447Z,83.09
2019-03-20T06:08:40.389Z,82.66
2019-03-20T06:11:09.379Z,82.67
2019-03-20T06:13:38.034Z,82.35
2019-03-20T06:16:06.718Z,81.70
2019-03-20T06:18:35.699Z,81.31
2019-03-20T06:21:04.830Z,80.71
2019-03-20T06:23:33.835Z,80.22
2019-03-20T06:26:02.497Z,80.58
2019-03-20T06:28:31.723Z,81.00
2019-03-20T06:31:00.712Z,79.93
2019-03-20T06:33:29.374Z,80.69
2019-03-20T06:35:58.277Z,80.55
2019-03-20T06:38:26.951Z,80.02
2019-03-20T06:40:55.579Z,79.75
2019-03-20T06:43:24.552Z,79.19
2019-03-20T06:45:53.606Z,79.15
2019-03-20T06:48:22.556Z,78.82
2019-03-20T06:50:51.508Z,79.02
2019-03-20T06:53:20.845Z,79.13
2019-03-20T06:55:50.134Z,78.80
2019-03-20T06:58:19.038Z,78.35
2019-03-20T07:00:57.893Z,78.13
2019-03-20T07:04:06.750Z,77.87
2019-03-20T07:06:58.385Z,77.78
2019-03-20T07:09:35.560Z,77.47
2019-03-20T07:12:04.486Z,77.96
2019-03-20T07:14:33.130Z,77.67
2019-03-20T07:17:01.775Z,77.56
2019-03-20T07:19:30.755Z,77.26
2019-03-20T07:21:59.748Z,76.91
2019-03-20T07:24:28.368Z,76.80
2019-03-20T07:26:57.376Z,77.18
2019-03-20T07:29:26.020Z,76.89
2019-03-20T07:31:54.751Z,77.34
2019-03-20T07:34:24.006Z,76.46
2019-03-20T07:36:53.016Z,76.01
2019-03-20T07:39:21.647Z,75.11
2019-03-20T07:41:50.973Z,75.55
2019-03-20T07:44:19.976Z,75.24
2019-03-20T07:46:48.607Z,74.15
2019-03-20T07:49:17.271Z,73.96
2019-03-20T07:51:46.226Z,73.03
2019-03-20T07:54:15.433Z,73.03
2019-03-20T07:56:44.051Z,71.50
2019-03-20T07:59:13.021Z,71.50
2019-03-20T08:01:42.001Z,72.82
2019-03-20T08:04:10.672Z,72.91
2019-03-20T08:06:39.721Z,72.91
2019-03-20T08:09:08.891Z,72.82
2019-03-20T08:11:37.562Z,72.79
2019-03-20T08:14:06.294Z,72.88
2019-03-20T08:16:35.272Z,72.88
2019-03-20T08:19:04.021Z,72.83
2019-03-20T08:21:33.032Z,72.51
2019-03-20T08:24:01.689Z,72.51
2019-03-20T08:26:30.329Z,71.95
2019-03-20T08:28:58.999Z,72.56
2019-03-20T08:31:27.673Z,72.21
2019-03-20T08:33:56.673Z,72.56
2019-03-20T08:36:25.969Z,71.83
2019-03-20T08:38:54.675Z,72.17
2019-03-20T08:41:23.379Z,71.08
2019-03-20T08:43:52.641Z,71.08
2019-03-20T08:46:21.855Z,69.74
2019-03-20T08:48:50.831Z,70.08
2019-03-20T08:51:20.030Z,70.08
2019-03-20T08:53:49.081Z,70.05
2019-03-20T08:56:18.028Z,70.60
2019-03-20T08:58:47.014Z,71.09
2019-03-20T09:01:27.892Z,70.81
2019-03-20T09:03:47.363Z,70.67
2019-03-20T09:06:16.947Z,70.68
2019-03-20T09:08:46.163Z,70.80
2019-03-20T09:11:15.699Z,69.70
2019-03-20T09:13:44.664Z,69.08
2019-03-20T09:16:13.657Z,69.11
2019-03-20T09:18:42.653Z,68.56
2019-03-20T09:21:11.540Z,67.95
2019-03-20T09:23:40.938Z,67.71
2019-03-20T09:26:10.155Z,67.71
2019-03-20T09:28:39.142Z,67.89
2019-03-20T09:31:07.830Z,68.05
2019-03-20T09:33:36.819Z,66.74
2019-03-20T09:36:05.811Z,66.74
2019-03-20T09:38:42.929Z,65.87
2019-03-20T09:41:05.236Z,66.23
2019-03-20T09:43:34.450Z,66.81
2019-03-20T09:46:03.145Z,68.01
2019-03-20T09:48:31.777Z,68.14
2019-03-20T09:51:00.444Z,67.21
2019-03-20T09:53:29.691Z,68.07
2019-03-20T09:55:58.576Z,67.83
2019-03-20T09:58:27.526Z,67.83
2019-03-20T10:00:56.769Z,68.51
2019-03-20T10:03:25.408Z,68.49
2019-03-20T10:05:54.339Z,68.75
2019-03-20T10:08:22.964Z,68.96
2019-03-20T10:10:51.588Z,68.95
2019-03-20T10:13:20.236Z,68.91
2019-03-20T10:15:49.305Z,68.84
2019-03-20T10:18:18.503Z,69.42
2019-03-20T10:20:47.274Z,69.59
2019-03-20T10:23:15.955Z,69.50
2019-03-20T10:25:45.153Z,69.50
2019-03-20T10:28:13.796Z,69.39
2019-03-20T10:30:42.752Z,69.39
2019-03-20T10:33:11.759Z,69.46
2019-03-20T10:35:49.926Z,69.01
2019-03-20T10:38:11.369Z,69.25
2019-03-20T10:40:40.301Z,69.25
2019-03-20T10:43:09.561Z,69.71
2019-03-20T10:45:38.758Z,69.64
2019-03-20T10:48:07.762Z,69.72
2019-03-20T10:50:36.433Z,69.82
2019-03-20T10:53:05.437Z,69.81
2019-03-20T10:55:34.430Z,70.65
2019-03-20T10:58:03.425Z,69.51
2019-03-20T11:00:32.516Z,70.65
2019-03-20T11:03:01.237Z,70.57
2019-03-20T11:05:30.203Z,70.40
2019-03-20T11:07:59.613Z,69.97
2019-03-20T11:10:28.336Z,70.00
2019-03-20T11:12:57.494Z,69.91
2019-03-20T11:15:26.307Z,69.84
2019-03-20T11:17:55.021Z,69.32
2019-03-20T11:20:24.464Z,69.37
2019-03-20T11:22:53.464Z,68.85
2019-03-20T11:25:22.456Z,69.12
2019-03-20T11:27:51.139Z,69.08
2019-03-20T11:30:21.878Z,69.44
2019-03-20T11:32:51.282Z,69.17
2019-03-20T11:35:20.057Z,69.21
2019-03-20T11:37:49.068Z,69.50
2019-03-20T11:40:23.072Z,69.92
2019-03-20T11:42:52.175Z,69.67
2019-03-20T11:45:23.510Z,69.87
2019-03-20T11:47:52.159Z,70.22
2019-03-20T11:50:29.458Z,70.40
2019-03-20T11:52:58.484Z,70.01
2019-03-20T11:55:27.530Z,70.20
2019-03-20T11:57:56.172Z,70.13
2019-03-20T12:00:25.273Z,70.15
2019-03-20T12:02:53.984Z,71.46
2019-03-20T12:05:22.945Z,73.69
2019-03-20T12:07:51.951Z,73.69
2019-03-20T12:10:21.761Z,74.60
2019-03-20T12:12:50.513Z,75.50
2019-03-20T12:15:19.255Z,75.50
2019-03-20T12:17:48.321Z,75.37
2019-03-20T12:20:18.003Z,75.37
2019-03-20T12:22:47.335Z,74.83
2019-03-20T12:25:18.320Z,74.72
2019-03-20T12:27:47.046Z,75.04
2019-03-20T12:30:18.099Z,75.08
2019-03-20T12:32:46.996Z,75.53
2019-03-20T12:35:16.294Z,75.69
2019-03-20T12:37:45.425Z,75.61
2019-03-20T12:40:24.906Z,76.17
2019-03-20T12:42:54.053Z,76.53
2019-03-20T12:45:25.374Z,76.76
2019-03-20T12:47:54.028Z,76.49
2019-03-20T12:50:22.771Z,76.10
2019-03-20T12:52:52.054Z,75.87
2019-03-20T12:55:21.051Z,75.66
2019-03-20T12:57:50.040Z,75.58
2019-03-20T13:00:20.486Z,75.58
2019-03-20T13:02:49.469Z,75.82
2019-03-20T13:05:18.215Z,75.38
2019-03-20T13:07:47.014Z,75.18
2019-03-20T13:10:17.365Z,75.13
2019-03-20T13:12:46.110Z,75.16
2019-03-20T13:15:19.649Z,74.82
2019-03-20T13:17:48.562Z,74.72
2019-03-20T13:20:17.552Z,74.51
2019-03-20T13:22:48.576Z,74.22
2019-03-20T13:25:17.577Z,74.20
2019-03-20T13:27:46.572Z,73.57
2019-03-20T13:30:20.859Z,73.65
2019-03-20T13:32:49.808Z,74.05
2019-03-20T13:35:18.580Z,74.44
2019-03-20T13:37:47.442Z,73.71
2019-03-20T13:40:16.542Z,73.20
2019-03-20T13:42:45.280Z,73.29
2019-03-20T13:45:15.365Z,73.19
2019-03-20T13:47:43.976Z,73.88
2019-03-20T13:50:13.963Z,73.64
2019-03-20T13:52:42.955Z,73.71
2019-03-20T13:55:11.956Z,73.47
2019-03-20T13:57:40.944Z,73.54
2019-03-20T14:00:13.826Z,73.71
2019-03-20T14:02:42.448Z,73.33
2019-03-20T14:05:11.511Z,73.76
2019-03-20T14:07:40.399Z,73.73
2019-03-20T14:10:10.647Z,73.85
2019-03-20T14:12:39.298Z,74.07
2019-03-20T14:15:09.393Z,74.01
2019-03-20T14:17:38.420Z,74.21
2019-03-20T14:20:09.674Z,75.33
2019-03-20T14:22:38.332Z,74.98
2019-03-20T14:25:07.448Z,74.84
2019-03-20T14:27:36.345Z,74.86
2019-03-20T14:30:07.507Z,75.14
2019-03-20T14:32:36.484Z,75.01
2019-03-20T14:35:05.679Z,75.60
2019-03-20T14:37:34.678Z,75.48
2019-03-20T14:40:03.491Z,75.94
2019-03-20T14:42:32.114Z,75.49
2019-03-20T14:45:01.295Z,75.88
2019-03-20T14:47:30.349Z,75.83
2019-03-20T14:49:59.331Z,76.10
2019-03-20T14:52:28.327Z,76.69
2019-03-20T14:54:56.977Z,76.49
2019-03-20T14:57:25.620Z,77.31
2019-03-20T14:59:54.322Z,76.94
2019-03-20T15:02:22.974Z,77.17
2019-03-20T15:04:51.967Z,77.23
2019-03-20T15:07:21.066Z,77.60
2019-03-20T15:09:49.833Z,77.76
2019-03-20T15:12:18.842Z,78.40
2019-03-20T15:14:47.490Z,78.70
2019-03-20T15:17:16.132Z,78.90
2019-03-20T15:19:45.111Z,79.05
2019-03-20T15:22:14.407Z,79.11
2019-03-20T15:24:43.399Z,79.03
2019-03-20T15:27:12.167Z,79.43
2019-03-20T15:29:40.845Z,79.57
2019-03-20T15:32:09.608Z,79.49
2019-03-20T15:34:38.378Z,79.82
2019-03-20T15:37:07.083Z,79.89
2019-03-20T15:39:35.729Z,79.74
2019-03-20T15:42:04.827Z,80.21
2019-03-20T15:44:33.815Z,80.20
2019-03-20T15:47:02.439Z,80.29
2019-03-20T15:49:31.394Z,80.84
2019-03-20T15:52:00.052Z,80.59
2019-03-20T15:54:28.780Z,80.66
2019-03-20T15:56:57.968Z,80.79
2019-03-20T15:59:26.613Z,81.20
2019-03-20T16:01:56.359Z,81.23
2019-03-20T16:04:25.392Z,81.22
2019-03-20T16:06:54.001Z,81.10
2019-03-20T16:09:22.952Z,80.95
2019-03-20T16:11:51.932Z,81.35
2019-03-20T16:14:20.922Z,81.61
2019-03-20T16:16:50.123Z,81.43
2019-03-20T16:19:19.531Z,81.61
2019-03-20T16:21:48.537Z,81.81
2019-03-20T16:24:17.177Z,81.82
2019-03-20T16:26:46.300Z,81.89
2019-03-20T16:29:15.221Z,82.23
2019-03-20T16:31:44.186Z,82.91
2019-03-20T16:34:13.238Z,82.32
2019-03-20T16:36:41.983Z,82.18
2019-03-20T16:39:10.962Z,82.00
2019-03-20T16:41:39.642Z,82.51
2019-03-20T16:44:08.539Z,82.31
2019-03-20T16:46:37.455Z,82.69
2019-03-20T16:49:06.222Z,82.53
2019-03-20T16:51:34.974Z,82.54
2019-03-20T16:54:03.909Z,82.46
2019-03-20T16:56:32.594Z,82.76
2019-03-20T16:59:01.923Z,82.78
2019-03-20T17:01:30.569Z,82.89
2019-03-20T17:03:59.977Z,83.33
2019-03-20T17:06:28.970Z,83.59
2019-03-20T17:08:57.862Z,83.99
2019-03-20T17:11:37.941Z,84.17
2019-03-20T17:13:57.108Z,84.64
2019-03-20T17:16:25.807Z,84.69
2019-03-20T17:18:54.756Z,85.80
2019-03-20T17:21:23.957Z,85.08
2019-03-20T17:23:52.623Z,84.35
2019-03-20T17:26:21.324Z,84.75
2019-03-20T17:28:50.632Z,84.84
2019-03-20T17:31:19.829Z,84.70
2019-03-20T17:33:48.720Z,84.40
2019-03-20T17:36:17.618Z,84.81
2019-03-20T17:38:46.308Z,84.91
2019-03-20T17:41:14.982Z,85.02
2019-03-20T17:43:43.611Z,85.05
2019-03-20T17:46:12.256Z,84.93
2019-03-20T17:48:40.880Z,85.00
2019-03-20T17:51:11.086Z,85.08
2019-03-20T17:53:40.374Z,85.06
2019-03-20T17:56:09.671Z,85.03
2019-03-20T17:58:38.964Z,84.62
2019-03-20T18:01:07.612Z,84.79
2019-03-20T18:03:36.664Z,84.86
2019-03-20T18:06:05.389Z,84.98
2019-03-20T18:08:34.426Z,84.96
2019-03-20T18:11:03.454Z,85.12
2019-03-20T18:13:32.106Z,84.88
2019-03-20T18:16:01.005Z,85.23
2019-03-20T18:18:29.636Z,85.43
2019-03-20T18:20:58.251Z,85.18
2019-03-20T18:23:26.876Z,84.88
2019-03-20T18:25:55.491Z,85.03
2019-03-20T18:28:24.144Z,84.88
2019-03-20T18:30:52.803Z,84.91
2019-03-20T18:33:21.406Z,84.96
2019-03-20T18:35:50.352Z,85.07
2019-03-20T18:38:19.017Z,85.58
2019-03-20T18:40:47.952Z,85.68
2019-03-20T18:43:16.670Z,85.43
2019-03-20T18:45:45.384Z,86.04
2019-03-20T18:48:14.098Z,85.82
2019-03-20T18:50:43.532Z,85.56
2019-03-20T18:53:12.223Z,86.25
2019-03-20T18:55:40.907Z,85.61
2019-03-20T18:58:09.590Z,85.43
2019-03-20T19:00:38.256Z,85.32
2019-03-20T19:03:07.021Z,85.38
2019-03-20T19:05:45.591Z,85.27
2019-03-20T19:08:14.681Z,85.11
2019-03-20T19:10:43.446Z,85.24
2019-03-20T19:13:12.163Z,85.46
2019-03-20T19:15:41.047Z,85.41
2019-03-20T19:18:10.250Z,85.15
2019-03-20T19:20:39.232Z,85.05
2019-03-20T19:23:08.129Z,85.00
2019-03-20T19:25:37.120Z,84.73
2019-03-20T19:28:05.820Z,84.74
2019-03-20T19:30:34.452Z,84.43
2019-03-20T19:33:03.384Z,84.41
2019-03-20T19:35:32.391Z,84.16
2019-03-20T19:38:01.486Z,84.71
2019-03-20T19:40:30.217Z,84.33
2019-03-20T19:42:59.403Z,84.66
2019-03-20T19:45:28.067Z,84.73
2019-03-20T19:47:57.049Z,84.18
2019-03-20T19:50:25.778Z,84.19
2019-03-20T19:52:54.794Z,84.05
2019-03-20T19:55:23.523Z,83.71
2019-03-20T19:57:52.508Z,83.99
2019-03-20T20:00:21.316Z,84.00
2019-03-20T20:02:50.290Z,84.00
2019-03-20T20:05:18.928Z,84.29
2019-03-20T20:07:47.896Z,84.67
2019-03-20T20:10:17.095Z,84.24
2019-03-20T20:12:46.159Z,84.58
2019-03-20T20:15:17.349Z,84.81
2019-03-20T20:17:47.114Z,83.98
2019-03-20T20:20:17.856Z,83.97
2019-03-20T20:22:46.951Z,83.74
2019-03-20T20:25:16.056Z,83.48
2019-03-20T20:27:44.773Z,83.83
2019-03-20T20:30:15.464Z,83.38
2019-03-20T20:32:44.557Z,83.02
2019-03-20T20:35:13.578Z,82.94
2019-03-20T20:37:42.990Z,82.91
2019-03-20T20:40:13.994Z,83.05
2019-03-20T20:42:43.476Z,83.06
2019-03-20T20:45:12.537Z,82.98
2019-03-20T20:47:41.900Z,83.30
2019-03-20T20:50:11.210Z,83.12
2019-03-20T20:52:40.086Z,83.83
2019-03-20T20:55:10.319Z,83.43
2019-03-20T20:57:38.952Z,84.02
2019-03-20T21:00:11.927Z,84.59
2019-03-20T21:02:40.891Z,84.64
2019-03-20T21:05:09.613Z,84.66
2019-03-20T21:07:38.285Z,84.91
2019-03-20T21:10:07.667Z,84.84
2019-03-20T21:12:36.592Z,85.39
2019-03-20T21:15:05.638Z,85.25
2019-03-20T21:17:56.967Z,85.36
2019-03-20T21:20:26.142Z,85.37
2019-03-20T21:23:37.359Z,85.42
2019-03-20T21:26:06.596Z,85.84
2019-03-20T21:29:15.601Z,86.35
2019-03-20T21:31:49.036Z,86.61
2019-03-20T21:35:01.576Z,85.95
2019-03-20T21:38:13.402Z,85.81
2019-03-20T21:41:36.254Z,86.09
2019-03-20T21:44:31.344Z,85.98
2019-03-20T21:47:17.031Z,85.86
2019-03-20T21:49:46.746Z,85.75
2019-03-20T21:52:16.146Z,85.68
2019-03-20T21:55:28.474Z,85.88
2019-03-20T21:58:09.670Z,85.99
2019-03-20T22:01:18.653Z,85.74
2019-03-20T22:03:47.840Z,85.80
2019-03-20T22:06:54.143Z,85.72
2019-03-20T22:10:16.546Z,85.96
2019-03-20T22:13:04.999Z,85.84
2019-03-20T22:15:52.582Z,85.84
2019-03-20T22:19:02.417Z,86.14
2019-03-20T22:22:04.994Z,86.30
2019-03-20T22:25:10.181Z,86.08
2019-03-20T22:28:15.286Z,85.39
2019-03-20T22:30:44.578Z,85.09
2019-03-20T22:33:49.603Z,84.89
2019-03-20T22:36:26.188Z,84.92
2019-03-20T22:39:41.151Z,84.92
2019-03-20T22:42:34.839Z,84.79
2019-03-20T22:45:25.027Z,84.66
2019-03-20T22:48:34.930Z,84.74
2019-03-20T22:51:37.152Z,84.52
2019-03-20T22:54:47.181Z,84.91
2019-03-20T22:57:30.926Z,85.25
2019-03-20T23:00:00.135Z,84.93
2019-03-20T23:02:37.148Z,84.90
2019-03-20T23:05:07.759Z,84.82
2019-03-20T23:07:37.262Z,84.75
2019-03-20T23:10:09.960Z,84.46
2019-03-20T23:12:39.133Z,84.41
2019-03-20T23:15:11.107Z,84.20
2019-03-20T23:17:40.612Z,84.27
2019-03-20T23:20:12.272Z,84.30
2019-03-20T23:22:41.760Z,83.86
2019-03-20T23:25:11.592Z,83.76
2019-03-20T23:27:41.091Z,83.68
2019-03-20T23:30:15.110Z,84.18
2019-03-20T23:32:44.607Z,84.08
2019-03-20T23:35:14.112Z,84.36
2019-03-20T23:37:43.662Z,84.24
2019-03-20T23:40:13.984Z,84.38
2019-03-20T23:42:44.271Z,84.26
2019-03-20T23:45:15.012Z,84.31
2019-03-20T23:47:56.951Z,85.00
2019-03-20T23:50:26.507Z,85.11
2019-03-20T23:52:55.666Z,86.04
2019-03-20T23:55:25.257Z,86.25
2019-03-20T23:57:54.419Z,86.29
